Time;durP1;ratioP1;P1;durP2;ratioP2;P2;SDS_P1;SDS_P2;PMS_P1;PMS_P2;Temp;Humidity;BMP_temperature;BMP_pressure;BME280_temperature;BME280_humidity;BME280_pressure;Samples;Min_cycle;Max_cycle;Signal;HPM_P1;HPM_P2
2023/08/21 00:01:49;;;;;;;7.93;2.67;;;;;;;;;;5008449;28;20448;-82
2023/08/21 00:04:23;;;;;;;7.43;2.90;;;;;;;;;;5011054;28;20455;-80
2023/08/21 00:06:53;;;;;;;5.63;2.93;;;;;;;;;;5009627;28;20474;-82
2023/08/21 00:09:20;;;;;;;6.70;2.90;;;;;;;;;;5011680;28;20471;-81
2023/08/21 00:11:48;;;;;;;5.57;2.87;;;;;;;;;;5007649;28;20535;-81
2023/08/21 00:14:16;;;;;;;8.10;3.20;;;;;;;;;;5010799;28;20454;-82
2023/08/21 00:16:44;;;;;;;6.67;3.13;;;;;;;;;;5007808;28;20460;-82
2023/08/21 00:19:11;;;;;;;4.33;2.73;;;;;;;;;;5008633;28;20491;-81
2023/08/21 00:21:40;;;;;;;13.00;2.90;;;;;;;;;;5008019;28;20495;-82
2023/08/21 00:24:09;;;;;;;5.60;3.00;;;;;;;;;;5007469;28;20448;-82
2023/08/21 00:26:37;;;;;;;7.20;3.20;;;;;;;;;;5008684;28;20722;-82
2023/08/21 00:29:04;;;;;;;5.40;3.13;;;;;;;;;;5007863;28;20492;-84
2023/08/21 00:31:32;;;;;;;6.17;3.13;;;;;;;;;;5007357;28;20689;-82
2023/08/21 00:34:00;;;;;;;7.47;2.97;;;;;;;;;;5006338;28;20456;-79
2023/08/21 00:36:28;;;;;;;6.37;3.13;;;;;;;;;;5006845;28;20895;-81
2023/08/21 00:38:55;;;;;;;5.50;2.80;;;;;;;;;;5006132;28;20452;-81
2023/08/21 00:41:24;;;;;;;5.90;2.97;;;;;;;;;;5007081;28;20487;-79
2023/08/21 00:43:52;;;;;;;5.77;3.30;;;;;;;;;;5005575;28;20531;-83
2023/08/21 00:46:20;;;;;;;5.57;2.77;;;;;;;;;;5006440;28;20550;-81
2023/08/21 00:48:48;;;;;;;5.63;3.10;;;;;;;;;;5006854;28;20491;-80
2023/08/21 00:51:16;;;;;;;6.53;3.40;;;;;;;;;;5008142;28;20452;-83
2023/08/21 00:53:48;;;;;;;8.07;3.03;;;;;;;;;;5008487;28;20463;-82
2023/08/21 00:56:16;;;;;;;6.40;3.23;;;;;;;;;;5008925;28;20547;-81
2023/08/21 00:58:46;;;;;;;10.03;3.63;;;;;;;;;;5009748;28;20467;-80
2023/08/21 01:01:16;;;;;;;6.13;3.37;;;;;;;;;;5008891;28;20864;-82
2023/08/21 01:03:46;;;;;;;7.60;3.83;;;;;;;;;;5008555;28;20884;-82
2023/08/21 01:06:14;;;;;;;5.70;3.17;;;;;;;;;;5010578;28;20478;-81
2023/08/21 01:08:44;;;;;;;7.00;3.80;;;;;;;;;;5009820;28;20468;-82
2023/08/21 01:11:16;;;;;;;5.40;2.87;;;;;;;;;;5008176;28;20510;-83
2023/08/21 01:13:50;;;;;;;7.30;3.30;;;;;;;;;;5008359;28;20468;-82
2023/08/21 01:16:18;;;;;;;5.40;3.77;;;;;;;;;;5007054;28;20460;-82
2023/08/21 01:18:47;;;;;;;5.97;3.87;;;;;;;;;;5004295;28;20464;-82
2023/08/21 01:21:14;;;;;;;5.37;2.80;;;;;;;;;;5004096;28;20495;-82
2023/08/21 01:23:49;;;;;;;6.60;3.83;;;;;;;;;;5004549;28;20460;-82
2023/08/21 01:26:17;;;;;;;5.37;2.63;;;;;;;;;;5005915;28;20856;-83
2023/08/21 01:28:51;;;;;;;4.47;3.20;;;;;;;;;;5007220;28;20491;-82
2023/08/21 01:31:23;;;;;;;5.37;3.27;;;;;;;;;;5006898;28;20721;-83
2023/08/21 01:33:53;;;;;;;9.40;4.23;;;;;;;;;;5006133;28;20464;-82
2023/08/21 01:36:21;;;;;;;5.40;3.20;;;;;;;;;;5006907;28;20472;-80
2023/08/21 01:38:51;;;;;;;9.37;3.93;;;;;;;;;;5005816;28;20765;-83
2023/08/21 01:41:18;;;;;;;4.37;3.00;;;;;;;;;;5007441;28;20453;-84
2023/08/21 01:43:48;;;;;;;5.83;3.47;;;;;;;;;;5006387;28;20457;-83
2023/08/21 01:46:16;;;;;;;7.43;3.93;;;;;;;;;;5007894;28;20463;-80
2023/08/21 01:48:44;;;;;;;5.27;3.10;;;;;;;;;;5009104;28;20455;-82
2023/08/21 01:51:12;;;;;;;5.30;3.00;;;;;;;;;;5008267;28;20460;-83
2023/08/21 01:53:40;;;;;;;7.33;4.10;;;;;;;;;;5008141;28;20439;-83
2023/08/21 01:56:10;;;;;;;4.13;3.17;;;;;;;;;;5005054;28;20460;-83
2023/08/21 01:58:38;;;;;;;4.87;3.40;;;;;;;;;;5007453;28;20468;-83
2023/08/21 02:01:06;;;;;;;5.63;3.73;;;;;;;;;;5003886;28;20475;-81
2023/08/21 02:03:34;;;;;;;7.57;3.50;;;;;;;;;;5008162;28;20875;-79
2023/08/21 02:06:01;;;;;;;6.87;3.70;;;;;;;;;;5008002;28;20479;-82
2023/08/21 02:08:32;;;;;;;9.00;4.33;;;;;;;;;;5007918;28;20460;-81
2023/08/21 02:11:00;;;;;;;6.90;3.83;;;;;;;;;;5004328;28;20486;-81
2023/08/21 02:13:30;;;;;;;5.20;3.17;;;;;;;;;;5007914;28;20444;-82
2023/08/21 02:15:57;;;;;;;7.60;4.80;;;;;;;;;;5011735;28;20444;-78
2023/08/21 02:18:25;;;;;;;5.63;3.30;;;;;;;;;;5006732;28;20499;-81
2023/08/21 02:20:53;;;;;;;5.53;4.00;;;;;;;;;;5009399;28;20484;-83
2023/08/21 02:23:20;;;;;;;8.70;3.87;;;;;;;;;;5005454;28;20605;-82
2023/08/21 02:25:49;;;;;;;6.20;3.07;;;;;;;;;;5011019;28;20460;-82
2023/08/21 02:28:16;;;;;;;6.57;3.60;;;;;;;;;;5006042;28;20490;-82
2023/08/21 02:30:48;;;;;;;7.13;3.30;;;;;;;;;;5009581;28;20484;-81
2023/08/21 02:33:16;;;;;;;7.13;3.50;;;;;;;;;;5005015;28;20462;-82
2023/08/21 02:35:44;;;;;;;5.43;3.67;;;;;;;;;;5009269;28;20488;-84
2023/08/21 02:38:14;;;;;;;11.77;4.07;;;;;;;;;;5007483;28;20460;-82
2023/08/21 02:40:42;;;;;;;6.60;4.33;;;;;;;;;;5009768;28;20528;-83
2023/08/21 02:43:13;;;;;;;6.33;3.23;;;;;;;;;;5006366;28;20468;-82
2023/08/21 02:45:40;;;;;;;10.23;3.93;;;;;;;;;;5007697;28;20471;-81
2023/08/21 02:48:10;;;;;;;5.80;2.70;;;;;;;;;;5005432;28;20453;-83
2023/08/21 02:50:37;;;;;;;5.33;3.00;;;;;;;;;;5006143;28;20502;-81
2023/08/21 02:53:05;;;;;;;7.03;3.23;;;;;;;;;;5006953;28;20479;-83
2023/08/21 02:55:33;;;;;;;8.10;3.27;;;;;;;;;;5008321;28;20468;-81
2023/08/21 02:58:00;;;;;;;4.03;2.90;;;;;;;;;;5008513;28;20513;-82
2023/08/21 03:00:28;;;;;;;5.27;3.07;;;;;;;;;;5008095;28;20444;-79
2023/08/21 03:02:56;;;;;;;6.57;3.17;;;;;;;;;;5008545;28;20467;-81
2023/08/21 03:05:25;;;;;;;6.80;4.13;;;;;;;;;;5008531;28;20462;-83
2023/08/21 03:07:52;;;;;;;8.00;3.30;;;;;;;;;;5009125;28;20460;-81
2023/08/21 03:10:20;;;;;;;6.47;3.87;;;;;;;;;;5008767;28;20499;-82
2023/08/21 03:12:48;;;;;;;5.57;3.50;;;;;;;;;;5007289;28;20456;-81
2023/08/21 03:15:16;;;;;;;5.10;3.63;;;;;;;;;;5008441;28;20455;-81
2023/08/21 03:17:44;;;;;;;5.57;3.77;;;;;;;;;;5004394;28;20456;-80
2023/08/21 03:20:15;;;;;;;8.47;5.90;;;;;;;;;;5008697;28;20729;-80
2023/08/21 03:22:45;;;;;;;8.77;4.20;;;;;;;;;;5003635;28;20460;-80
2023/08/21 03:25:12;;;;;;;6.73;3.90;;;;;;;;;;5006271;28;20767;-80
2023/08/21 03:27:44;;;;;;;8.23;4.17;;;;;;;;;;5000744;28;20448;-82
2023/08/21 03:30:14;;;;;;;5.00;3.50;;;;;;;;;;5005266;28;20487;-81
2023/08/21 03:32:42;;;;;;;5.97;3.67;;;;;;;;;;5003521;28;20460;-81
2023/08/21 03:35:10;;;;;;;8.10;3.70;;;;;;;;;;5006472;28;20444;-82
2023/08/21 03:37:37;;;;;;;7.77;3.90;;;;;;;;;;5002728;28;20435;-82
2023/08/21 03:40:09;;;;;;;8.13;3.70;;;;;;;;;;5005890;28;20852;-82
2023/08/21 03:42:37;;;;;;;6.10;3.27;;;;;;;;;;5004288;28;20501;-82
2023/08/21 03:45:06;;;;;;;5.77;3.40;;;;;;;;;;5004686;28;20463;-80
2023/08/21 03:47:33;;;;;;;9.50;3.27;;;;;;;;;;5003083;28;20470;-78
2023/08/21 03:50:03;;;;;;;7.10;3.57;;;;;;;;;;5004239;28;20912;-81
2023/08/21 03:52:32;;;;;;;4.80;3.20;;;;;;;;;;5003501;28;20437;-78
2023/08/21 03:55:00;;;;;;;5.97;3.90;;;;;;;;;;5005405;28;20442;-81
2023/08/21 03:57:29;;;;;;;5.17;2.83;;;;;;;;;;5001435;28;20479;-80
2023/08/21 03:59:57;;;;;;;11.63;3.80;;;;;;;;;;5005470;28;20475;-82
2023/08/21 04:02:24;;;;;;;7.20;4.13;;;;;;;;;;5006962;28;20486;-79
2023/08/21 04:04:52;;;;;;;5.43;3.50;;;;;;;;;;5009618;28;20446;-83
2023/08/21 04:07:26;;;;;;;5.83;3.40;;;;;;;;;;5008066;28;20466;-79
2023/08/21 04:09:54;;;;;;;5.37;3.57;;;;;;;;;;5010528;28;20478;-82
2023/08/21 04:12:21;;;;;;;6.00;3.77;;;;;;;;;;5007650;28;20864;-81
2023/08/21 04:14:51;;;;;;;9.10;4.17;;;;;;;;;;5007644;28;20460;-78
2023/08/21 04:17:22;;;;;;;7.47;3.80;;;;;;;;;;5007138;28;20455;-81
2023/08/21 04:19:50;;;;;;;5.93;3.50;;;;;;;;;;5006831;28;20480;-82
2023/08/21 04:22:17;;;;;;;9.90;3.73;;;;;;;;;;5007119;28;20822;-81
2023/08/21 04:24:45;;;;;;;8.10;4.17;;;;;;;;;;5005776;28;20463;-81
2023/08/21 04:27:14;;;;;;;8.23;4.40;;;;;;;;;;5008542;28;20544;-79
2023/08/21 04:29:41;;;;;;;12.13;4.43;;;;;;;;;;5007380;28;20480;-81
2023/08/21 04:32:10;;;;;;;10.07;4.27;;;;;;;;;;5009199;28;20459;-80
2023/08/21 04:34:38;;;;;;;11.60;4.93;;;;;;;;;;5006415;28;20879;-79
2023/08/21 04:37:06;;;;;;;7.43;4.07;;;;;;;;;;5009425;28;20440;-80
2023/08/21 04:39:34;;;;;;;8.80;4.73;;;;;;;;;;5006955;28;20468;-82
2023/08/21 04:42:03;;;;;;;12.67;4.60;;;;;;;;;;5010790;28;20452;-82
2023/08/21 04:44:32;;;;;;;6.40;3.97;;;;;;;;;;5010316;28;20472;-79
2023/08/21 04:46:59;;;;;;;9.63;4.80;;;;;;;;;;5008321;28;20466;-80
2023/08/21 04:49:29;;;;;;;7.67;3.80;;;;;;;;;;5006541;28;20463;-84
2023/08/21 04:51:57;;;;;;;12.27;4.50;;;;;;;;;;5007970;28;20464;-81
2023/08/21 04:54:24;;;;;;;9.77;4.80;;;;;;;;;;5007842;28;20787;-81
2023/08/21 04:56:52;;;;;;;8.40;4.07;;;;;;;;;;5005564;28;20499;-80
2023/08/21 04:59:20;;;;;;;6.53;4.00;;;;;;;;;;5004536;28;20531;-83
2023/08/21 05:01:47;;;;;;;9.13;5.00;;;;;;;;;;5004574;28;20440;-82
2023/08/21 05:04:15;;;;;;;9.53;4.70;;;;;;;;;;5005755;28;20479;-81
2023/08/21 05:06:44;;;;;;;13.83;6.40;;;;;;;;;;5002416;28;20483;-82
2023/08/21 05:09:12;;;;;;;10.23;4.37;;;;;;;;;;5003806;28;20915;-80
2023/08/21 05:11:40;;;;;;;12.03;4.40;;;;;;;;;;5002946;28;20498;-81
2023/08/21 05:14:08;;;;;;;9.37;3.83;;;;;;;;;;5003872;28;20437;-81
2023/08/21 05:16:38;;;;;;;8.10;3.60;;;;;;;;;;5001259;28;20495;-82
2023/08/21 05:19:06;;;;;;;12.17;3.77;;;;;;;;;;5003581;28;20506;-82
2023/08/21 05:21:34;;;;;;;6.77;3.80;;;;;;;;;;5001173;28;20468;-80
2023/08/21 05:24:04;;;;;;;6.73;3.93;;;;;;;;;;5006773;28;20464;-79
2023/08/21 05:26:32;;;;;;;5.90;3.77;;;;;;;;;;5005394;28;20440;-81
2023/08/21 05:29:03;;;;;;;5.73;3.70;;;;;;;;;;5005059;28;20449;-82
2023/08/21 05:31:31;;;;;;;7.87;4.13;;;;;;;;;;5004544;28;20499;-82
2023/08/21 05:33:59;;;;;;;7.60;3.57;;;;;;;;;;4999476;28;20965;-79
2023/08/21 05:36:27;;;;;;;5.40;3.10;;;;;;;;;;4998183;28;20444;-79
2023/08/21 05:38:55;;;;;;;8.27;3.60;;;;;;;;;;4999989;28;20451;-81
2023/08/21 05:41:24;;;;;;;9.13;2.80;;;;;;;;;;5000106;28;20450;-78
2023/08/21 05:43:51;;;;;;;8.73;3.43;;;;;;;;;;4998685;28;20452;-80
2023/08/21 05:46:19;;;;;;;7.23;3.90;;;;;;;;;;4998396;28;20697;-80
2023/08/21 05:48:47;;;;;;;7.60;3.07;;;;;;;;;;4997825;28;20476;-81
2023/08/21 05:51:14;;;;;;;8.10;3.00;;;;;;;;;;4999431;28;20492;-81
2023/08/21 05:53:42;;;;;;;11.60;2.57;;;;;;;;;;4996212;28;20456;-80
2023/08/21 05:56:11;;;;;;;9.57;2.83;;;;;;;;;;4997489;28;20512;-81
2023/08/21 05:58:40;;;;;;;5.97;2.00;;;;;;;;;;4995576;28;20516;-78
2023/08/21 06:01:08;;;;;;;8.70;2.20;;;;;;;;;;4996465;28;20476;-81
2023/08/21 06:03:36;;;;;;;7.23;2.30;;;;;;;;;;4983666;28;20481;-81
2023/08/21 06:06:04;;;;;;;6.00;2.63;;;;;;;;;;4998034;28;20543;-83
2023/08/21 06:08:32;;;;;;;5.67;3.23;;;;;;;;;;4992486;28;20483;-81
2023/08/21 06:10:59;;;;;;;9.50;3.10;;;;;;;;;;4999248;28;20487;-82
2023/08/21 06:13:27;;;;;;;8.40;3.07;;;;;;;;;;4990180;28;20672;-78
2023/08/21 06:15:57;;;;;;;8.47;3.00;;;;;;;;;;4981681;28;20457;-81
2023/08/21 06:18:24;;;;;;;9.73;2.70;;;;;;;;;;4990411;28;20465;-79
2023/08/21 06:20:53;;;;;;;4.77;1.97;;;;;;;;;;4998184;28;20471;-81
2023/08/21 06:23:21;;;;;;;8.13;2.37;;;;;;;;;;4994230;28;20522;-79
2023/08/21 06:25:50;;;;;;;4.33;1.93;;;;;;;;;;5001271;28;20449;-80
2023/08/21 06:28:17;;;;;;;14.60;2.00;;;;;;;;;;5003917;28;20713;-80
2023/08/21 06:30:45;;;;;;;4.97;1.57;;;;;;;;;;4999333;28;20487;-79
2023/08/21 06:33:14;;;;;;;6.60;1.90;;;;;;;;;;5001379;28;20531;-80
2023/08/21 06:35:42;;;;;;;6.90;1.60;;;;;;;;;;5003165;28;20607;-79
2023/08/21 06:38:10;;;;;;;6.13;1.90;;;;;;;;;;4997953;28;20459;-80
2023/08/21 06:40:38;;;;;;;7.80;1.53;;;;;;;;;;5001917;28;20456;-80
2023/08/21 06:43:06;;;;;;;4.37;1.90;;;;;;;;;;4999312;28;20452;-80
2023/08/21 06:45:34;;;;;;;6.30;2.27;;;;;;;;;;5003508;28;20459;-79
2023/08/21 06:48:02;;;;;;;9.50;1.90;;;;;;;;;;4999526;28;20467;-80
2023/08/21 06:50:40;;;;;;;8.73;2.03;;;;;;;;;;4999615;28;20484;-78
2023/08/21 06:53:19;;;;;;;5.10;1.90;;;;;;;;;;5001688;28;20440;-80
2023/08/21 06:55:48;;;;;;;5.33;1.80;;;;;;;;;;4983969;28;20449;-80
2023/08/21 06:58:16;;;;;;;5.30;2.03;;;;;;;;;;4981106;28;20460;-80
2023/08/21 07:00:44;;;;;;;3.40;1.80;;;;;;;;;;4980089;28;20437;-80
2023/08/21 07:03:17;;;;;;;3.57;1.10;;;;;;;;;;4981654;28;20453;-78
2023/08/21 07:05:55;;;;;;;3.90;1.87;;;;;;;;;;5004784;28;20457;-81
2023/08/21 07:08:23;;;;;;;5.23;2.00;;;;;;;;;;4999157;28;20424;-81
2023/08/21 07:10:51;;;;;;;9.23;2.43;;;;;;;;;;5000173;28;20486;-80
2023/08/21 07:13:19;;;;;;;3.00;1.23;;;;;;;;;;5002968;28;20483;-81
2023/08/21 07:15:50;;;;;;;7.00;1.80;;;;;;;;;;5005252;28;20476;-81
2023/08/21 07:18:18;;;;;;;7.80;2.97;;;;;;;;;;5000811;28;20732;-80
2023/08/21 07:20:46;;;;;;;4.40;1.60;;;;;;;;;;5002713;28;20480;-78
2023/08/21 07:23:16;;;;;;;5.33;1.30;;;;;;;;;;5002473;28;20453;-78
2023/08/21 07:25:44;;;;;;;6.90;1.90;;;;;;;;;;5006111;28;20464;-79
2023/08/21 07:28:13;;;;;;;6.10;1.77;;;;;;;;;;5000605;28;20452;-81
2023/08/21 07:30:51;;;;;;;6.30;1.93;;;;;;;;;;4998466;28;20565;-80
2023/08/21 07:33:19;;;;;;;4.47;1.80;;;;;;;;;;4996033;28;20471;-80
2023/08/21 07:35:47;;;;;;;7.70;2.80;;;;;;;;;;4987619;28;20912;-78
2023/08/21 07:38:16;;;;;;;6.93;2.13;;;;;;;;;;4986572;28;20465;-77
2023/08/21 07:40:59;;;;;;;8.17;2.20;;;;;;;;;;4987583;28;20615;-80
2023/08/21 07:43:27;;;;;;;5.73;2.60;;;;;;;;;;4982921;28;20547;-79
2023/08/21 07:45:55;;;;;;;5.33;2.23;;;;;;;;;;4983730;28;20560;-79
2023/08/21 07:48:24;;;;;;;6.93;3.07;;;;;;;;;;4983874;28;20487;-79
2023/08/21 07:50:54;;;;;;;5.63;2.17;;;;;;;;;;4987852;28;20905;-78
2023/08/21 07:53:24;;;;;;;6.60;2.03;;;;;;;;;;4990680;28;20448;-78
2023/08/21 07:55:55;;;;;;;8.70;2.70;;;;;;;;;;5009630;28;20682;-78
2023/08/21 07:58:24;;;;;;;7.00;1.87;;;;;;;;;;5017657;28;20475;-79
2023/08/21 08:00:52;;;;;;;14.93;6.33;;;;;;;;;;5004053;28;20452;-78
2023/08/21 08:03:20;;;;;;;5.93;2.93;;;;;;;;;;5009173;28;20452;-78
2023/08/21 08:05:48;;;;;;;5.97;2.10;;;;;;;;;;5008017;28;20479;-79
2023/08/21 08:08:15;;;;;;;10.00;2.20;;;;;;;;;;5005281;28;21103;-78
2023/08/21 08:10:56;;;;;;;6.17;1.80;;;;;;;;;;5008525;28;20468;-78
2023/08/21 08:13:28;;;;;;;8.83;2.90;;;;;;;;;;4996295;28;20464;-79
2023/08/21 08:15:56;;;;;;;7.40;1.70;;;;;;;;;;5002539;28;20460;-79
2023/08/21 08:18:25;;;;;;;6.27;2.80;;;;;;;;;;4990275;28;20461;-79
2023/08/21 08:20:53;;;;;;;8.50;2.60;;;;;;;;;;4991133;28;20479;-81
2023/08/21 08:23:23;;;;;;;5.93;1.33;;;;;;;;;;5006312;28;20913;-79
2023/08/21 08:25:52;;;;;;;5.70;1.93;;;;;;;;;;5005767;28;20775;-78
2023/08/21 08:28:21;;;;;;;5.10;1.53;;;;;;;;;;5005267;28;20452;-78
2023/08/21 08:30:50;;;;;;;10.90;2.37;;;;;;;;;;5003912;28;20448;-78
2023/08/21 08:33:33;;;;;;;9.33;2.30;;;;;;;;;;5002143;28;20475;-78
2023/08/21 08:36:01;;;;;;;7.37;2.27;;;;;;;;;;4987476;28;20460;-79
2023/08/21 08:38:28;;;;;;;10.33;4.73;;;;;;;;;;5005336;28;20769;-80
2023/08/21 08:40:59;;;;;;;9.10;2.77;;;;;;;;;;5006667;28;20441;-80
2023/08/21 08:43:30;;;;;;;10.27;2.17;;;;;;;;;;5004297;28;20523;-79
2023/08/21 08:46:00;;;;;;;8.97;1.80;;;;;;;;;;4994400;28;20478;-80
2023/08/21 08:48:32;;;;;;;5.10;1.80;;;;;;;;;;5003172;28;20456;-79
2023/08/21 08:51:00;;;;;;;7.23;1.60;;;;;;;;;;5006368;28;20491;-80
2023/08/21 08:53:29;;;;;;;5.63;1.63;;;;;;;;;;5004435;28;20463;-79
2023/08/21 08:55:58;;;;;;;4.50;1.53;;;;;;;;;;5006018;28;20456;-79
2023/08/21 08:58:27;;;;;;;6.93;1.50;;;;;;;;;;5000064;28;20464;-79
2023/08/21 09:00:55;;;;;;;6.60;1.90;;;;;;;;;;5001340;28;20538;-79
2023/08/21 09:03:24;;;;;;;6.40;2.23;;;;;;;;;;5007026;28;20472;-78
2023/08/21 09:06:00;;;;;;;6.60;1.50;;;;;;;;;;5005387;28;20536;-80
2023/08/21 09:08:44;;;;;;;6.27;2.43;;;;;;;;;;5003254;28;20951;-78
2023/08/21 09:11:14;;;;;;;6.70;1.47;;;;;;;;;;5004377;28;20492;-79
2023/08/21 09:13:44;;;;;;;8.63;1.93;;;;;;;;;;4998536;28;20472;-79
2023/08/21 09:16:17;;;;;;;5.53;1.73;;;;;;;;;;5007780;28;20488;-79
2023/08/21 09:18:49;;;;;;;7.30;2.90;;;;;;;;;;5002849;28;20461;-78
2023/08/21 09:21:36;;;;;;;6.83;2.03;;;;;;;;;;4983952;28;20515;-79
2023/08/21 09:24:04;;;;;;;5.63;2.33;;;;;;;;;;5004197;28;20539;-78
2023/08/21 09:26:34;;;;;;;6.47;1.80;;;;;;;;;;5004350;28;20466;-78
2023/08/21 09:29:05;;;;;;;4.33;0.97;;;;;;;;;;5006371;28;20488;-80
2023/08/21 09:31:35;;;;;;;6.30;1.47;;;;;;;;;;5003119;28;20953;-79
2023/08/21 09:34:09;;;;;;;4.03;1.17;;;;;;;;;;5008634;28;20445;-80
2023/08/21 09:36:37;;;;;;;3.50;1.10;;;;;;;;;;5001373;28;20455;-81
2023/08/21 09:39:06;;;;;;;7.83;1.60;;;;;;;;;;4992098;28;20465;-78
2023/08/21 09:41:36;;;;;;;3.77;1.20;;;;;;;;;;4999635;28;20456;-78
2023/08/21 09:44:09;;;;;;;5.83;1.40;;;;;;;;;;5000567;28;20456;-78
2023/08/21 09:46:42;;;;;;;6.07;1.27;;;;;;;;;;5000132;28;20487;-81
2023/08/21 09:49:10;;;;;;;5.83;1.37;;;;;;;;;;5004924;28;20520;-80
2023/08/21 09:51:38;;;;;;;6.40;1.27;;;;;;;;;;5006173;28;20544;-81
2023/08/21 09:54:28;;;;;;;4.03;1.30;;;;;;;;;;5004187;28;20457;-79
2023/08/21 09:57:06;;;;;;;4.57;1.10;;;;;;;;;;5005424;28;20823;-79
2023/08/21 09:59:42;;;;;;;6.53;1.73;;;;;;;;;;5005121;28;20474;-80
2023/08/21 10:02:14;;;;;;;4.50;1.40;;;;;;;;;;5004908;28;20532;-77
2023/08/21 10:04:48;;;;;;;6.63;1.13;;;;;;;;;;5005568;28;20472;-79
2023/08/21 10:07:17;;;;;;;4.27;1.47;;;;;;;;;;5007065;28;20459;-81
2023/08/21 10:09:45;;;;;;;4.17;1.60;;;;;;;;;;5005050;28;20443;-81
2023/08/21 10:12:17;;;;;;;4.40;1.40;;;;;;;;;;4999470;28;20488;-79
2023/08/21 10:14:44;;;;;;;5.10;1.17;;;;;;;;;;5006408;28;20523;-80
2023/08/21 10:17:16;;;;;;;9.50;1.83;;;;;;;;;;5006285;28;20468;-80
2023/08/21 10:19:55;;;;;;;6.13;1.60;;;;;;;;;;5004116;28;20495;-81
2023/08/21 10:22:39;;;;;;;3.17;1.10;;;;;;;;;;5006090;28;20487;-81
2023/08/21 10:25:15;;;;;;;7.30;1.33;;;;;;;;;;4987843;28;20471;-81
2023/08/21 10:28:03;;;;;;;17.97;1.70;;;;;;;;;;4984843;28;20452;-80
2023/08/21 10:30:40;;;;;;;4.73;1.40;;;;;;;;;;4991226;28;20638;-81
2023/08/21 10:33:11;;;;;;;5.53;1.20;;;;;;;;;;5003815;28;20489;-82
2023/08/21 10:35:39;;;;;;;3.63;1.30;;;;;;;;;;5003119;28;20456;-81
2023/08/21 10:38:08;;;;;;;3.50;1.10;;;;;;;;;;5000261;28;20477;-80
2023/08/21 10:40:36;;;;;;;3.60;1.23;;;;;;;;;;5002073;28;20622;-78
2023/08/21 10:43:07;;;;;;;4.00;1.50;;;;;;;;;;5006187;28;20449;-80
2023/08/21 10:45:55;;;;;;;4.70;1.83;;;;;;;;;;5006193;28;20452;-80
2023/08/21 10:48:23;;;;;;;7.33;2.37;;;;;;;;;;5007720;28;20519;-80
2023/08/21 10:50:55;;;;;;;5.10;2.20;;;;;;;;;;5004222;28;20476;-80
2023/08/21 10:53:29;;;;;;;7.87;1.87;;;;;;;;;;4995114;28;20473;-79
2023/08/21 10:56:00;;;;;;;4.00;1.20;;;;;;;;;;5001372;28;20515;-79
2023/08/21 10:58:29;;;;;;;3.37;0.90;;;;;;;;;;4985025;28;21135;-79
2023/08/21 11:01:08;;;;;;;5.43;1.40;;;;;;;;;;4998600;28;20475;-78
2023/08/21 11:03:36;;;;;;;4.47;1.30;;;;;;;;;;5000287;28;20535;-78
2023/08/21 11:06:06;;;;;;;3.97;1.03;;;;;;;;;;5002918;28;20466;-78
2023/08/21 11:08:34;;;;;;;3.70;1.27;;;;;;;;;;5001961;28;20452;-80
2023/08/21 11:11:04;;;;;;;3.67;0.90;;;;;;;;;;4994909;28;20460;-78
2023/08/21 11:13:34;;;;;;;5.17;1.67;;;;;;;;;;5001217;28;20527;-78
2023/08/21 11:16:03;;;;;;;4.10;1.33;;;;;;;;;;5001460;28;20463;-81
2023/08/21 11:18:36;;;;;;;3.40;1.23;;;;;;;;;;4998798;28;20524;-80
2023/08/21 11:21:25;;;;;;;2.90;0.80;;;;;;;;;;5000070;28;20516;-80
2023/08/21 11:24:02;;;;;;;3.70;1.03;;;;;;;;;;4969895;28;20453;-79
2023/08/21 11:26:30;;;;;;;2.23;1.10;;;;;;;;;;4996376;28;20451;-80
2023/08/21 11:29:03;;;;;;;4.33;1.27;;;;;;;;;;5002390;28;20460;-81
2023/08/21 11:31:32;;;;;;;2.83;0.90;;;;;;;;;;4990446;28;20500;-79
2023/08/21 11:34:00;;;;;;;3.60;1.00;;;;;;;;;;4999241;28;20463;-78
2023/08/21 11:36:33;;;;;;;3.23;1.00;;;;;;;;;;5003647;28;20471;-80
2023/08/21 11:39:08;;;;;;;3.30;1.33;;;;;;;;;;5004950;28;20448;-81
2023/08/21 11:41:51;;;;;;;4.43;1.30;;;;;;;;;;5000199;28;20448;-80
2023/08/21 11:44:25;;;;;;;5.40;1.17;;;;;;;;;;5002554;28;20749;-80
2023/08/21 11:46:54;;;;;;;2.83;0.90;;;;;;;;;;5002396;28;20467;-80
2023/08/21 11:49:24;;;;;;;3.43;1.00;;;;;;;;;;5005352;28;20531;-81
2023/08/21 11:51:57;;;;;;;2.30;0.93;;;;;;;;;;5003174;28;20484;-79
2023/08/21 11:54:40;;;;;;;6.60;1.23;;;;;;;;;;4988207;28;20441;-81
2023/08/21 11:57:11;;;;;;;4.47;0.90;;;;;;;;;;4986139;28;20527;-82
2023/08/21 11:59:42;;;;;;;3.30;1.10;;;;;;;;;;5004643;28;20480;-81
2023/08/21 12:02:11;;;;;;;3.50;1.30;;;;;;;;;;5000343;28;20475;-81
2023/08/21 12:04:42;;;;;;;4.63;1.23;;;;;;;;;;5003177;28;20479;-80
2023/08/21 12:07:19;;;;;;;3.60;1.27;;;;;;;;;;4984842;28;20441;-81
2023/08/21 12:09:57;;;;;;;3.80;1.13;;;;;;;;;;5007703;28;20446;-80
2023/08/21 12:12:30;;;;;;;5.10;1.97;;;;;;;;;;4999675;28;20475;-81
2023/08/21 12:15:03;;;;;;;6.03;1.50;;;;;;;;;;5004866;28;20440;-82
2023/08/21 12:17:31;;;;;;;5.30;2.00;;;;;;;;;;5001082;28;20491;-81
2023/08/21 12:19:59;;;;;;;3.73;1.73;;;;;;;;;;5001292;28;20436;-80
2023/08/21 12:22:27;;;;;;;3.20;1.10;;;;;;;;;;5002365;28;20510;-81
2023/08/21 12:24:55;;;;;;;2.80;1.03;;;;;;;;;;5007220;28;20455;-80
2023/08/21 12:27:24;;;;;;;5.70;1.43;;;;;;;;;;5007448;28;20444;-82
2023/08/21 12:29:56;;;;;;;2.47;1.13;;;;;;;;;;5012501;28;20512;-82
2023/08/21 12:32:29;;;;;;;2.30;0.90;;;;;;;;;;5010182;28;20480;-80
2023/08/21 12:34:59;;;;;;;3.73;1.50;;;;;;;;;;4991426;28;20460;-82
2023/08/21 12:37:37;;;;;;;2.73;1.00;;;;;;;;;;5002683;28;20491;-80
2023/08/21 12:40:08;;;;;;;3.13;1.00;;;;;;;;;;5001631;28;20488;-80
2023/08/21 12:42:38;;;;;;;4.50;0.90;;;;;;;;;;5001715;28;20480;-81
2023/08/21 12:45:07;;;;;;;5.00;1.50;;;;;;;;;;5002773;28;20522;-80
2023/08/21 12:47:36;;;;;;;3.40;1.20;;;;;;;;;;5005116;28;20449;-81
2023/08/21 12:50:08;;;;;;;2.87;1.30;;;;;;;;;;5003309;28;20547;-83
2023/08/21 12:52:36;;;;;;;5.63;0.83;;;;;;;;;;5003454;28;20514;-82
2023/08/21 12:55:06;;;;;;;3.47;0.90;;;;;;;;;;5008480;28;20460;-78
2023/08/21 12:57:38;;;;;;;3.70;0.97;;;;;;;;;;5004392;28;20535;-80
2023/08/21 13:00:15;;;;;;;2.83;1.00;;;;;;;;;;5003090;28;20472;-80
2023/08/21 13:02:44;;;;;;;2.23;1.17;;;;;;;;;;5003039;28;20495;-81
2023/08/21 13:05:12;;;;;;;2.97;1.07;;;;;;;;;;5003753;28;20713;-81
2023/08/21 13:07:40;;;;;;;2.73;1.07;;;;;;;;;;5006038;28;20464;-80
2023/08/21 13:10:09;;;;;;;3.53;1.07;;;;;;;;;;5006505;28;21182;-78
2023/08/21 13:12:37;;;;;;;3.03;1.00;;;;;;;;;;4986122;28;20504;-82
2023/08/21 13:15:07;;;;;;;3.17;1.17;;;;;;;;;;4997474;28;20448;-78
2023/08/21 13:17:35;;;;;;;4.67;0.90;;;;;;;;;;5009902;28;20499;-81
2023/08/21 13:20:08;;;;;;;4.60;1.10;;;;;;;;;;5010627;28;20539;-80
2023/08/21 13:22:46;;;;;;;3.30;0.90;;;;;;;;;;4971020;28;20817;-80
2023/08/21 13:25:14;;;;;;;3.60;1.00;;;;;;;;;;4965494;29;20461;-81
2023/08/21 13:28:16;;;;;;;2.30;1.23;;;;;;;;;;4968520;28;20457;-82
2023/08/21 13:30:45;;;;;;;6.60;1.23;;;;;;;;;;4930954;29;20475;-80
2023/08/21 13:33:13;;;;;;;4.30;1.53;;;;;;;;;;4963016;28;20930;-77
2023/08/21 13:35:43;;;;;;;2.40;1.13;;;;;;;;;;4965359;28;20458;-78
2023/08/21 13:38:17;;;;;;;4.47;1.00;;;;;;;;;;4964303;28;20477;-81
2023/08/21 13:40:44;;;;;;;3.30;1.23;;;;;;;;;;4970134;28;20450;-80
2023/08/21 13:43:12;;;;;;;3.80;1.13;;;;;;;;;;4964876;29;20517;-80
2023/08/21 13:45:40;;;;;;;3.27;1.50;;;;;;;;;;4962884;29;20504;-80
2023/08/21 13:48:09;;;;;;;2.70;1.37;;;;;;;;;;4962957;28;20449;-78
2023/08/21 13:50:38;;;;;;;3.90;1.20;;;;;;;;;;4964452;28;20468;-79
2023/08/21 13:53:09;;;;;;;3.10;1.10;;;;;;;;;;4950101;28;20604;-81
2023/08/21 13:55:38;;;;;;;3.30;1.03;;;;;;;;;;4950084;28;20447;-81
2023/08/21 13:58:06;;;;;;;6.53;2.60;;;;;;;;;;4946786;29;20469;-79
2023/08/21 14:00:34;;;;;;;2.80;1.10;;;;;;;;;;4944139;29;20455;-78
2023/08/21 14:03:05;;;;;;;5.13;1.63;;;;;;;;;;4951111;29;20446;-81
2023/08/21 14:05:33;;;;;;;3.07;1.10;;;;;;;;;;4963230;28;20458;-80
2023/08/21 14:08:01;;;;;;;3.23;1.40;;;;;;;;;;4961445;28;20485;-77
2023/08/21 14:10:31;;;;;;;2.83;0.90;;;;;;;;;;4959074;28;20465;-81
2023/08/21 14:12:58;;;;;;;2.83;1.17;;;;;;;;;;4958597;28;21042;-79
2023/08/21 14:15:26;;;;;;;5.60;1.30;;;;;;;;;;4962526;29;20458;-78
2023/08/21 14:17:55;;;;;;;4.13;1.30;;;;;;;;;;4966258;29;20492;-77
2023/08/21 14:20:23;;;;;;;2.30;1.30;;;;;;;;;;4946106;28;20455;-81
2023/08/21 14:22:51;;;;;;;4.67;1.60;;;;;;;;;;4981037;28;20539;-79
2023/08/21 14:25:19;;;;;;;3.50;1.20;;;;;;;;;;4996948;28;20522;-79
2023/08/21 14:27:49;;;;;;;3.87;1.30;;;;;;;;;;4998218;28;20575;-81
2023/08/21 14:30:26;;;;;;;3.63;1.40;;;;;;;;;;5001381;28;20894;-80
2023/08/21 14:32:58;;;;;;;4.70;1.37;;;;;;;;;;5001729;28;20574;-80
2023/08/21 14:35:31;;;;;;;2.80;1.30;;;;;;;;;;5005141;28;20559;-80
2023/08/21 14:37:59;;;;;;;2.70;1.10;;;;;;;;;;5004056;28;20598;-82
2023/08/21 14:40:28;;;;;;;3.00;0.93;;;;;;;;;;5004665;28;20471;-82
2023/08/21 14:42:58;;;;;;;2.73;1.20;;;;;;;;;;5002396;28;20468;-81
2023/08/21 14:45:26;;;;;;;6.43;1.23;;;;;;;;;;4999059;28;20457;-81
2023/08/21 14:47:54;;;;;;;3.57;1.40;;;;;;;;;;4997975;28;20468;-81
2023/08/21 14:50:25;;;;;;;3.70;1.27;;;;;;;;;;5000732;28;20445;-81
2023/08/21 14:52:53;;;;;;;3.87;1.13;;;;;;;;;;4998736;28;20883;-80
2023/08/21 14:55:21;;;;;;;2.10;0.90;;;;;;;;;;5001358;28;20471;-82
2023/08/21 14:57:49;;;;;;;4.13;1.20;;;;;;;;;;4999597;28;20536;-80
2023/08/21 15:00:19;;;;;;;4.97;1.03;;;;;;;;;;5000713;28;20475;-78